WXBOT messages


fromtotime message
WXBOT N6BSS 05/08 23:29:30z Send another 4 Miles SSW Diamond Springs CA. Tonight,Clear Low 53
N6BSS WXBOT 05/08 23:29:24z Reply 95623{1132
N6BSS WXBOT 05/08 23:28:08z Reply 95623{352
N6BSS WXBOT 05/08 23:25:14z Reply 95623{350
N6BSS WXBOT 05/08 23:14:49z Reply 95623{2781
RGSTRY WXBOT 05/08 23:00:54z Reply ?{4366
WXBOT N1QQA-9 05/08 22:52:12z Send another t Low 35
WXBOT N1QQA-9 05/08 22:52:07z Send another 2 Miles NNW Milton Mills NH. Tonight,Partly Cloudy then Patchy Fros
VA3KJH-15 WXBOT 05/08 22:50:18z Reply Help{004
VA3KJH-15 WXBOT 05/08 22:49:24z Reply METAR{003
WXBOT WA1GOV-1 05/08 22:30:15z Send another w 40
WXBOT WA1GOV-1 05/08 22:30:10z Send another East Taunton MA. Tonight,Isolated Showers then Partly Cloudy 20% Lo
RGSTRY WXBOT 05/08 22:00:54z Reply ?{4289
WXBOT KB1HVC-7 05/08 21:37:22z Send another 2 Miles NNW Wilton CT. This Afternoon,Slight Chance Showers 20% Hig
KB1HVC-7 WXBOT 05/08 21:37:16z Reply 06897{9
WXBOT NC4LM-10 05/08 21:36:19z Send another 2 Miles SE Flat Rock NC. Tonight,Mostly Cloudy Low 51
WXBOT AF6DH 05/08 21:35:46z Send another 2 Miles NNE Marina Del Rey CA. This Afternoon,Mostly Sunny High 73
AF6DH WXBOT 05/08 21:35:40z Reply 90066{1629
WXBOT KH6NS-5 05/08 21:34:36z Send another Kilauea HI. Today,Scattered Showers 30% High 78
KH6NS-5 WXBOT 05/08 21:34:29z Reply 96754{FSL
WXBOT K7TEJ-9 05/08 21:31:37z Send another FW7674 97,wind:250@13 g17,1010.1mbar,rh:14%,rain:none
WXBOT KJ0TEN-3 05/08 21:04:14z Send another 4 Miles ESE Pineville NC. Tonight,Mostly Cloudy Low 54
KJ0TEN-3 WXBOT 05/08 21:04:08z Reply 28277{5
RGSTRY WXBOT 05/08 21:00:54z Reply ?{4212
WXBOT KO4BJV-11 05/08 21:00:39z Send another 3 Miles SE Village VA. Tonight,Mostly Clear Low 53
WXBOT W6DAD 05/08 20:56:03z Send another s 50% High 57
W6DAD WXBOT 05/08 20:55:51z Reply 44805{2093
WXBOT KR4LQA-9 05/08 20:53:37z Send another 2 Miles ENE Kershaw SC. Tonight,Mostly Cloudy Low 56
WXBOT KO4CDJ-5 05/08 20:22:58z Send another rs Likely and Patchy Fog 70% High 77
WXBOT KO4CDJ-5 05/08 20:22:53z Send another 3 Miles S Hogansville GA. Hazardous Weather Outlook, Saturday,Showe
WXBOT K7TEJ-9 05/08 20:18:55z Send another FW7674 94,wind:190@11 g17,1011.0mbar,rh:16%,rain:none
WXBOT KR6I-7 05/08 20:06:56z Send another Lloyd Center OR. Saturday,Increasing Clouds High 79
WXBOT KR6I-7 05/08 20:05:45z Send another Winter Springs FL. This Afternoon,Showers Likely 60% High 91
KR6I-7 WXBOT 05/08 20:05:38z Reply 32708{1
RGSTRY WXBOT 05/08 20:00:54z Reply ?{4135
WXBOT K7TEJ-9 05/08 19:37:44z Send another FW7674 91,wind:155@6 g6,1011.6mbar,rh:16%,rain:none
WXBOT K5FCB-7 05/08 19:02:58z Send another Pflugerville TX. This Afternoon,Slight Chance T-storms 20% High 78
K5FCB-7 WXBOT 05/08 19:02:51z Reply 78660{00002
WXBOT K5FCB-7 05/08 19:02:36z Send another Sorry, unable to get a forecast for location 23/113
K5FCB-7 WXBOT 05/08 19:02:28z Reply hello{00001
RGSTRY WXBOT 05/08 19:00:54z Reply ?{4060
WXBOT KK4DUK 05/08 18:49:05z Send another Fog then Chance T-storms 50% High 85
WXBOT KK4DUK 05/08 18:49:00z Send another 6 Miles SSW Lake City FL. Saturday,Slight Chance Showers and Patchy
KK4DUK WXBOT 05/08 18:48:53z Reply 32024 tomorrow{C000b
VA3KJH-15 WXBOT 05/08 18:41:11z Reply HELP{002
WXBOT K0RPG-14 05/08 18:32:23z Send another 9 mph.
WXBOT K0RPG-14 05/08 18:32:17z Send another Pella IA. This Afternoon,Sunny, with a high near 73. West wind 5 to
K0RPG-14 WXBOT 05/08 18:32:11z Reply 50219 full{14
WXBOT KE9DPQ-1 05/08 18:20:54z Send another 2 Miles WNW Sellersburg IN. This Afternoon,Mostly Sunny High 73
KE9DPQ-1 WXBOT 05/08 18:20:47z Reply 47172{3DC39
WXBOT KG7ASX 05/08 18:20:29z Send another 3 Miles SE King City OR. Today,Sunny High 73
KG7ASX WXBOT 05/08 18:20:22z Reply 97062{957
WXBOT K7TEJ-9 05/08 18:11:36z Send another FW7674 87,wind:184@6 g8,1013.0mbar,rh:18%,rain:none
WXBOT K7TEJ-9 05/08 18:08:54z Send another FW7674 88,wind:204@11 g13,1013.0mbar,rh:19%,rain:none
KH6NS-5 WXBOT 05/08 17:38:41z Reply 96754{WRU
WXBOT KJ5LKE-7 05/08 17:33:05z Send another Tomball TX. Saturday,Chance Showers then Chance T-storms 40% High 8
KJ5LKE-7 WXBOT 05/08 17:29:35z Reply ?{3
WXBOT K7TEJ-9 05/08 17:28:40z Send another FW7674 87,wind:119@6 g6,1012.9mbar,rh:19%,rain:none
WXBOT K7TEJ-9 05/08 17:27:38z Send another FW7674 86,wind:295@4 g4,1013.0mbar,rh:20%,rain:none
WXBOT KJ5LKE-7 05/08 17:24:15z Send another Tomball TX. This Afternoon,Chance T-storms 50% High 78
WXBOT KO4CDJ-5 05/08 17:13:25z Send another ,Mostly Cloudy High 75
WXBOT KO4CDJ-5 05/08 17:13:20z Send another 3 Miles S Hogansville GA. Hazardous Weather Outlook, This Afternoon
WXBOT KK4DUK 05/08 17:11:05z Send another Tacoma WA. Today,Mostly Sunny High 61
KK4DUK WXBOT 05/08 17:10:58z Reply Tacoma, WA{C0009
RGSTRY WXBOT 05/08 17:00:54z Reply ?{3910
WXBOT AC0VH-9 05/08 16:30:24z Send another Montrose CO. Hazardous Weather Outlook, Today,Sunny High 76
K7TEJ-9 WXBOT 05/08 16:26:52z Reply CWOP {49
WXBOT K7TEJ-9 05/08 16:25:53z Send another FW7674 85,wind:calm,1013.5mbar,rh:21%,rain:none
WXBOT AC0VH-9 05/08 16:22:27z Send another nny High 76
WXBOT AC0VH-9 05/08 16:22:22z Send another 2 Miles W Montrose Co. Arpt CO. Hazardous Weather Outlook, Today,Su
WXBOT K4LLL 05/08 16:19:44z Send another 2 Miles S Silverhill AL. Today,Showers 80% High 77
K4LLL WXBOT 05/08 16:19:38z Reply 36576{1285
WXBOT AC0VH-9 05/08 16:19:20z Send another ph in the afternoon. Winds could gust as high as 20 mph.
WXBOT AC0VH-9 05/08 16:19:15z Send another a high near 77. Light north northwest wind increasing to 5 to 10 m
WXBOT AC0VH-9 05/08 16:19:10z Send another 4 Miles SSE Olathe CO. Hazardous Weather Outlook, Today,Sunny, with
AC0VH-9 WXBOT 05/08 16:19:01z Reply Cortez full{8
WXBOT KC3OVT-7 05/08 16:17:11z Send another Jefferson PA. Tonight,Mostly Cloudy then Showers Likely 60% Low 49
WXBOT AC0VH-9 05/08 16:17:04z Send another clear
KC3OVT-7 WXBOT 05/08 16:17:01z Reply 15344 tonight{5
WXBOT AC0VH-9 05/08 16:16:59z Send another Currently at Montrose, Montrose Regional Airport, Temp:64 wind:0@0,
AC0VH-9 WXBOT 05/08 16:16:51z Reply Current {7
AC0VH-9 WXBOT 05/08 16:15:52z Reply Help {6
WXBOT N3WYY-7 05/08 16:15:51z Send another day,Scattered Showers 30% High 76
WXBOT N3WYY-7 05/08 16:15:46z Send another Scott Air Force Base / Belleville IL. Hazardous Weather Outlook, To
AC0VH-9 WXBOT 05/08 16:15:14z Reply Brief {5
WXBOT AC0VH-9 05/08 16:14:51z Send another Olathe CO. Hazardous Weather Outlook, Today,Sunny High 78
WXBOT AC0VH-9 05/08 16:00:55z Send another Delta CO. Hazardous Weather Outlook, Today,Sunny High 80
RGSTRY WXBOT 05/08 16:00:54z Reply ?{3835
WXBOT KJ4FHG-2 05/08 15:55:23z Send another ated Showers 90% Low 52
WXBOT KJ4FHG-2 05/08 15:55:18z Send another East Alton IL. Hazardous Weather Outlook, Tonight,Showers then Isol
KJ4FHG-2 WXBOT 05/08 15:55:10z Reply Tonight{0E}
KC1YKV wxbot 05/08 15:52:42z Reply 02148{1
WXBOT K7TEJ-9 05/08 15:50:19z Send another FW7674 82,wind:189@4 g6,1013.5mbar,rh:22%,rain:none
WXBOT KO4WIL-9 05/08 15:34:28z Send another gh 72
WXBOT KO4WIL-9 05/08 15:34:23z Send another 5 Miles WSW Knoxville TN. Hazardous Weather Outlook, Today,Sunny Hi
KO4WIL-9 WXBOT 05/08 15:34:16z Reply 37909{X33
WXBOT KB9ZDD 05/08 15:18:33z Send another Lake Summerset IL. Today,Mostly Sunny High 67
KB9ZDD WXBOT 05/08 15:18:26z Reply 61019{4381
WXBOT KC3YOI-11 05/08 15:13:17z Send another ce of precipitation is 40%.
WXBOT KC3YOI-11 05/08 15:13:12z Send another . Partly sunny, with a high near 52. West wind around 8 mph. Chan